sensor_id;sensor_type;location;lat;lon;timestamp;temperature;humidity
69006;SHT31;56061;51.748;19.620;2023-06-04T00:02:02;5.44;72.25
69006;SHT31;56061;51.748;19.620;2023-06-04T00:04:29;5.41;72.40
69006;SHT31;56061;51.748;19.620;2023-06-04T00:06:56;5.37;72.68
69006;SHT31;56061;51.748;19.620;2023-06-04T00:09:22;5.34;72.52
69006;SHT31;56061;51.748;19.620;2023-06-04T00:11:49;5.33;72.76
69006;SHT31;56061;51.748;19.620;2023-06-04T00:14:16;5.36;72.92
69006;SHT31;56061;51.748;19.620;2023-06-04T00:16:42;5.39;72.98
69006;SHT31;56061;51.748;19.620;2023-06-04T00:19:10;5.44;73.11
69006;SHT31;56061;51.748;19.620;2023-06-04T00:21:36;5.48;73.40
69006;SHT31;56061;51.748;19.620;2023-06-04T00:24:03;5.54;73.68
69006;SHT31;56061;51.748;19.620;2023-06-04T00:26:30;5.55;73.62
69006;SHT31;56061;51.748;19.620;2023-06-04T00:28:56;5.55;73.70
69006;SHT31;56061;51.748;19.620;2023-06-04T00:31:23;5.52;73.46
69006;SHT31;56061;51.748;19.620;2023-06-04T00:33:50;5.46;73.20
69006;SHT31;56061;51.748;19.620;2023-06-04T00:36:17;5.38;73.14
69006;SHT31;56061;51.748;19.620;2023-06-04T00:38:44;5.29;73.19
69006;SHT31;56061;51.748;19.620;2023-06-04T00:41:10;5.21;73.29
69006;SHT31;56061;51.748;19.620;2023-06-04T00:43:37;5.14;73.34
69006;SHT31;56061;51.748;19.620;2023-06-04T00:46:05;5.09;73.34
69006;SHT31;56061;51.748;19.620;2023-06-04T00:48:32;5.06;73.32
69006;SHT31;56061;51.748;19.620;2023-06-04T00:50:59;5.04;73.51
69006;SHT31;56061;51.748;19.620;2023-06-04T00:53:26;5.03;73.65
69006;SHT31;56061;51.748;19.620;2023-06-04T00:55:53;5.03;73.72
69006;SHT31;56061;51.748;19.620;2023-06-04T00:58:19;5.03;73.51
69006;SHT31;56061;51.748;19.620;2023-06-04T01:00:46;5.01;73.59
69006;SHT31;56061;51.748;19.620;2023-06-04T01:03:14;4.99;73.94
69006;SHT31;56061;51.748;19.620;2023-06-04T01:05:55;4.97;74.39
69006;SHT31;56061;51.748;19.620;2023-06-04T01:08:30;4.90;74.94
69006;SHT31;56061;51.748;19.620;2023-06-04T01:10:57;4.82;74.50
69006;SHT31;56061;51.748;19.620;2023-06-04T01:13:24;4.78;74.52
69006;SHT31;56061;51.748;19.620;2023-06-04T01:15:50;4.78;74.57
69006;SHT31;56061;51.748;19.620;2023-06-04T01:18:23;4.77;74.52
69006;SHT31;56061;51.748;19.620;2023-06-04T01:21:02;4.76;74.53
69006;SHT31;56061;51.748;19.620;2023-06-04T01:23:40;4.75;74.75
69006;SHT31;56061;51.748;19.620;2023-06-04T01:26:09;4.80;74.98
69006;SHT31;56061;51.748;19.620;2023-06-04T01:28:36;4.79;74.84
69006;SHT31;56061;51.748;19.620;2023-06-04T01:31:05;4.78;74.73
69006;SHT31;56061;51.748;19.620;2023-06-04T01:33:35;4.78;74.82
69006;SHT31;56061;51.748;19.620;2023-06-04T01:36:02;4.79;75.09
69006;SHT31;56061;51.748;19.620;2023-06-04T01:38:29;4.78;74.97
69006;SHT31;56061;51.748;19.620;2023-06-04T01:40:56;4.76;75.10
69006;SHT31;56061;51.748;19.620;2023-06-04T01:43:27;4.76;75.06
69006;SHT31;56061;51.748;19.620;2023-06-04T01:45:55;4.77;74.94
69006;SHT31;56061;51.748;19.620;2023-06-04T01:48:22;4.76;74.90
69006;SHT31;56061;51.748;19.620;2023-06-04T01:50:49;4.77;74.97
69006;SHT31;56061;51.748;19.620;2023-06-04T01:53:15;4.76;74.99
69006;SHT31;56061;51.748;19.620;2023-06-04T01:55:42;4.72;74.93
69006;SHT31;56061;51.748;19.620;2023-06-04T01:58:08;4.72;75.19
69006;SHT31;56061;51.748;19.620;2023-06-04T02:00:35;4.74;75.76
69006;SHT31;56061;51.748;19.620;2023-06-04T02:03:01;4.78;76.04
69006;SHT31;56061;51.748;19.620;2023-06-04T02:05:29;4.81;76.00
69006;SHT31;56061;51.748;19.620;2023-06-04T02:07:55;4.82;75.92
69006;SHT31;56061;51.748;19.620;2023-06-04T02:10:23;4.81;75.78
69006;SHT31;56061;51.748;19.620;2023-06-04T02:12:53;4.79;75.59
69006;SHT31;56061;51.748;19.620;2023-06-04T02:15:22;4.76;75.58
69006;SHT31;56061;51.748;19.620;2023-06-04T02:17:53;4.75;75.54
69006;SHT31;56061;51.748;19.620;2023-06-04T02:20:28;4.73;75.67
69006;SHT31;56061;51.748;19.620;2023-06-04T02:22:55;4.71;75.70
69006;SHT31;56061;51.748;19.620;2023-06-04T02:25:22;4.70;75.72
69006;SHT31;56061;51.748;19.620;2023-06-04T02:27:51;4.69;75.82
69006;SHT31;56061;51.748;19.620;2023-06-04T02:30:18;4.67;75.87
69006;SHT31;56061;51.748;19.620;2023-06-04T02:32:44;4.64;75.84
69006;SHT31;56061;51.748;19.620;2023-06-04T02:35:17;4.59;75.80
69006;SHT31;56061;51.748;19.620;2023-06-04T02:37:44;4.57;75.79
69006;SHT31;56061;51.748;19.620;2023-06-04T02:40:10;4.54;75.76
69006;SHT31;56061;51.748;19.620;2023-06-04T02:42:37;4.51;75.64
69006;SHT31;56061;51.748;19.620;2023-06-04T02:45:04;4.51;75.64
69006;SHT31;56061;51.748;19.620;2023-06-04T02:47:31;4.49;75.62
69006;SHT31;56061;51.748;19.620;2023-06-04T02:49:57;4.49;75.75
69006;SHT31;56061;51.748;19.620;2023-06-04T02:52:24;4.49;75.90
69006;SHT31;56061;51.748;19.620;2023-06-04T02:54:51;4.49;75.99
69006;SHT31;56061;51.748;19.620;2023-06-04T02:57:17;4.47;75.98
69006;SHT31;56061;51.748;19.620;2023-06-04T02:59:44;4.43;75.81
69006;SHT31;56061;51.748;19.620;2023-06-04T03:02:10;4.43;75.85
69006;SHT31;56061;51.748;19.620;2023-06-04T03:04:38;4.44;75.92
69006;SHT31;56061;51.748;19.620;2023-06-04T03:07:05;4.46;75.87
69006;SHT31;56061;51.748;19.620;2023-06-04T03:09:31;4.49;75.97
69006;SHT31;56061;51.748;19.620;2023-06-04T03:12:02;4.55;75.89
69006;SHT31;56061;51.748;19.620;2023-06-04T03:14:30;4.60;75.86
69006;SHT31;56061;51.748;19.620;2023-06-04T03:16:59;4.65;76.05
69006;SHT31;56061;51.748;19.620;2023-06-04T03:19:34;4.71;76.14
69006;SHT31;56061;51.748;19.620;2023-06-04T03:22:06;4.78;76.16
69006;SHT31;56061;51.748;19.620;2023-06-04T03:24:35;4.84;76.33
69006;SHT31;56061;51.748;19.620;2023-06-04T03:27:05;4.89;76.51
69006;SHT31;56061;51.748;19.620;2023-06-04T03:29:33;4.94;76.75
69006;SHT31;56061;51.748;19.620;2023-06-04T03:32:01;4.98;76.95
69006;SHT31;56061;51.748;19.620;2023-06-04T03:34:28;5.03;77.03
69006;SHT31;56061;51.748;19.620;2023-06-04T03:37:00;5.10;77.07
69006;SHT31;56061;51.748;19.620;2023-06-04T03:39:27;5.17;77.07
69006;SHT31;56061;51.748;19.620;2023-06-04T03:41:53;5.28;77.32
69006;SHT31;56061;51.748;19.620;2023-06-04T03:44:21;5.37;77.64
69006;SHT31;56061;51.748;19.620;2023-06-04T03:46:48;5.46;77.83
69006;SHT31;56061;51.748;19.620;2023-06-04T03:49:15;5.54;77.87
69006;SHT31;56061;51.748;19.620;2023-06-04T03:51:43;5.63;77.73
69006;SHT31;56061;51.748;19.620;2023-06-04T03:54:14;5.72;77.62
69006;SHT31;56061;51.748;19.620;2023-06-04T03:56:43;5.81;77.67
69006;SHT31;56061;51.748;19.620;2023-06-04T03:59:09;5.94;77.68
69006;SHT31;56061;51.748;19.620;2023-06-04T04:01:36;6.09;77.71
69006;SHT31;56061;51.748;19.620;2023-06-04T04:04:10;6.24;77.80
69006;SHT31;56061;51.748;19.620;2023-06-04T04:06:45;6.40;77.86
69006;SHT31;56061;51.748;19.620;2023-06-04T04:09:12;6.59;77.92
69006;SHT31;56061;51.748;19.620;2023-06-04T04:11:38;6.78;77.93
69006;SHT31;56061;51.748;19.620;2023-06-04T04:14:05;6.95;77.87
69006;SHT31;56061;51.748;19.620;2023-06-04T04:21:41;7.43;77.68
69006;SHT31;56061;51.748;19.620;2023-06-04T04:24:08;7.58;77.43
69006;SHT31;56061;51.748;19.620;2023-06-04T04:29:42;7.97;77.23
69006;SHT31;56061;51.748;19.620;2023-06-04T04:32:08;8.17;77.15
69006;SHT31;56061;51.748;19.620;2023-06-04T04:34:52;8.38;77.13
69006;SHT31;56061;51.748;19.620;2023-06-04T04:37:21;8.58;76.94
69006;SHT31;56061;51.748;19.620;2023-06-04T04:39:48;8.75;76.64
69006;SHT31;56061;51.748;19.620;2023-06-04T04:42:18;8.92;76.17
69006;SHT31;56061;51.748;19.620;2023-06-04T04:44:53;9.10;75.73
69006;SHT31;56061;51.748;19.620;2023-06-04T04:47:20;9.28;75.63
69006;SHT31;56061;51.748;19.620;2023-06-04T04:49:46;9.45;75.30
69006;SHT31;56061;51.748;19.620;2023-06-04T04:52:16;9.63;74.76
69006;SHT31;56061;51.748;19.620;2023-06-04T04:54:42;9.78;74.53
69006;SHT31;56061;51.748;19.620;2023-06-04T04:57:17;9.92;73.92
69006;SHT31;56061;51.748;19.620;2023-06-04T04:59:44;10.15;73.10
69006;SHT31;56061;51.748;19.620;2023-06-04T05:02:11;10.36;72.37
69006;SHT31;56061;51.748;19.620;2023-06-04T05:04:38;10.56;71.79
69006;SHT31;56061;51.748;19.620;2023-06-04T05:07:04;10.76;71.05
69006;SHT31;56061;51.748;19.620;2023-06-04T05:09:42;10.92;70.67
69006;SHT31;56061;51.748;19.620;2023-06-04T05:12:08;11.07;70.33
69006;SHT31;56061;51.748;19.620;2023-06-04T05:14:35;11.22;69.86
69006;SHT31;56061;51.748;19.620;2023-06-04T05:17:03;11.38;69.26
69006;SHT31;56061;51.748;19.620;2023-06-04T05:19:29;11.53;68.91
69006;SHT31;56061;51.748;19.620;2023-06-04T05:22:05;11.69;68.25
69006;SHT31;56061;51.748;19.620;2023-06-04T05:24:31;11.85;67.57
69006;SHT31;56061;51.748;19.620;2023-06-04T05:26:59;11.99;67.13
69006;SHT31;56061;51.748;19.620;2023-06-04T05:29:25;12.13;66.88
69006;SHT31;56061;51.748;19.620;2023-06-04T05:31:51;12.26;66.81
69006;SHT31;56061;51.748;19.620;2023-06-04T05:37:11;12.52;65.64
69006;SHT31;56061;51.748;19.620;2023-06-04T05:39:37;12.64;65.31
69006;SHT31;56061;51.748;19.620;2023-06-04T05:42:07;12.80;64.78
69006;SHT31;56061;51.748;19.620;2023-06-04T05:44:36;12.96;63.87
69006;SHT31;56061;51.748;19.620;2023-06-04T05:47:02;13.10;63.54
69006;SHT31;56061;51.748;19.620;2023-06-04T05:49:29;13.21;63.56
69006;SHT31;56061;51.748;19.620;2023-06-04T05:51:55;13.34;63.14
69006;SHT31;56061;51.748;19.620;2023-06-04T05:54:22;13.46;62.78
69006;SHT31;56061;51.748;19.620;2023-06-04T05:56:48;13.56;62.25
69006;SHT31;56061;51.748;19.620;2023-06-04T05:59:27;13.68;61.64
69006;SHT31;56061;51.748;19.620;2023-06-04T06:01:53;13.83;60.95
69006;SHT31;56061;51.748;19.620;2023-06-04T06:04:20;13.96;60.80
69006;SHT31;56061;51.748;19.620;2023-06-04T06:06:46;14.07;60.42
69006;SHT31;56061;51.748;19.620;2023-06-04T06:09:23;14.22;59.95
69006;SHT31;56061;51.748;19.620;2023-06-04T06:11:50;14.34;59.34
69006;SHT31;56061;51.748;19.620;2023-06-04T06:14:19;14.45;58.75
69006;SHT31;56061;51.748;19.620;2023-06-04T06:16:46;14.56;57.47
69006;SHT31;56061;51.748;19.620;2023-06-04T06:19:18;14.65;56.88
69006;SHT31;56061;51.748;19.620;2023-06-04T06:24:14;14.83;57.28
69006;SHT31;56061;51.748;19.620;2023-06-04T06:26:40;14.92;57.27
69006;SHT31;56061;51.748;19.620;2023-06-04T06:29:06;15.01;56.39
69006;SHT31;56061;51.748;19.620;2023-06-04T06:31:33;15.13;56.09
69006;SHT31;56061;51.748;19.620;2023-06-04T06:34:12;15.25;56.14
69006;SHT31;56061;51.748;19.620;2023-06-04T06:36:39;15.35;55.16
69006;SHT31;56061;51.748;19.620;2023-06-04T06:39:05;15.47;54.97
69006;SHT31;56061;51.748;19.620;2023-06-04T06:41:32;15.58;54.94
69006;SHT31;56061;51.748;19.620;2023-06-04T06:43:58;15.67;54.61
69006;SHT31;56061;51.748;19.620;2023-06-04T06:46:32;15.76;54.10
69006;SHT31;56061;51.748;19.620;2023-06-04T06:48:59;15.85;54.33
69006;SHT31;56061;51.748;19.620;2023-06-04T06:51:26;15.96;54.12
69006;SHT31;56061;51.748;19.620;2023-06-04T06:53:52;16.08;53.89
69006;SHT31;56061;51.748;19.620;2023-06-04T06:56:19;16.16;52.63
69006;SHT31;56061;51.748;19.620;2023-06-04T07:01:21;16.30;52.44
69006;SHT31;56061;51.748;19.620;2023-06-04T07:03:48;16.38;52.24
69006;SHT31;56061;51.748;19.620;2023-06-04T07:06:15;16.45;51.92
69006;SHT31;56061;51.748;19.620;2023-06-04T07:08:42;16.51;50.74
69006;SHT31;56061;51.748;19.620;2023-06-04T07:13:48;16.58;50.98
69006;SHT31;56061;51.748;19.620;2023-06-04T07:16:15;16.63;50.29
69006;SHT31;56061;51.748;19.620;2023-06-04T07:18:42;16.70;50.76
69006;SHT31;56061;51.748;19.620;2023-06-04T07:21:08;16.76;49.42
69006;SHT31;56061;51.748;19.620;2023-06-04T07:26:13;16.74;47.39
69006;SHT31;56061;51.748;19.620;2023-06-04T07:28:42;16.73;47.67
69006;SHT31;56061;51.748;19.620;2023-06-04T07:31:09;16.73;46.79
69006;SHT31;56061;51.748;19.620;2023-06-04T07:33:41;16.75;47.46
69006;SHT31;56061;51.748;19.620;2023-06-04T07:36:10;16.84;45.50
69006;SHT31;56061;51.748;19.620;2023-06-04T07:38:38;16.86;45.46
69006;SHT31;56061;51.748;19.620;2023-06-04T07:41:05;16.89;45.75
69006;SHT31;56061;51.748;19.620;2023-06-04T07:43:33;16.96;46.46
69006;SHT31;56061;51.748;19.620;2023-06-04T07:46:01;17.02;45.59
69006;SHT31;56061;51.748;19.620;2023-06-04T07:48:39;17.08;46.16
69006;SHT31;56061;51.748;19.620;2023-06-04T07:51:06;17.17;46.78
69006;SHT31;56061;51.748;19.620;2023-06-04T07:53:32;17.27;46.68
69006;SHT31;56061;51.748;19.620;2023-06-04T07:55:59;17.33;46.38
69006;SHT31;56061;51.748;19.620;2023-06-04T07:58:37;17.39;46.36
69006;SHT31;56061;51.748;19.620;2023-06-04T08:01:04;17.48;46.18
69006;SHT31;56061;51.748;19.620;2023-06-04T08:03:30;17.53;46.48
69006;SHT31;56061;51.748;19.620;2023-06-04T08:05:58;17.60;46.15
69006;SHT31;56061;51.748;19.620;2023-06-04T08:08:26;17.65;45.77
69006;SHT31;56061;51.748;19.620;2023-06-04T08:13:44;17.67;44.90
69006;SHT31;56061;51.748;19.620;2023-06-04T08:16:11;17.64;44.23
69006;SHT31;56061;51.748;19.620;2023-06-04T08:18:43;17.55;43.77
69006;SHT31;56061;51.748;19.620;2023-06-04T08:21:10;17.51;44.45
69006;SHT31;56061;51.748;19.620;2023-06-04T08:23:38;17.50;44.06
69006;SHT31;56061;51.748;19.620;2023-06-04T08:26:04;17.52;44.47
69006;SHT31;56061;51.748;19.620;2023-06-04T08:28:34;17.58;44.46
69006;SHT31;56061;51.748;19.620;2023-06-04T08:31:07;17.66;44.23
69006;SHT31;56061;51.748;19.620;2023-06-04T08:33:34;17.73;43.98
69006;SHT31;56061;51.748;19.620;2023-06-04T08:36:00;17.76;44.14
69006;SHT31;56061;51.748;19.620;2023-06-04T08:38:27;17.82;43.51
69006;SHT31;56061;51.748;19.620;2023-06-04T08:40:53;17.83;43.37
69006;SHT31;56061;51.748;19.620;2023-06-04T08:43:30;17.84;43.57
69006;SHT31;56061;51.748;19.620;2023-06-04T08:46:00;17.85;43.13
69006;SHT31;56061;51.748;19.620;2023-06-04T09:01:13;18.11;44.92
69006;SHT31;56061;51.748;19.620;2023-06-04T09:06:38;18.32;43.96
69006;SHT31;56061;51.748;19.620;2023-06-04T09:19:07;18.26;42.76
69006;SHT31;56061;51.748;19.620;2023-06-04T09:21:34;18.30;43.33
69006;SHT31;56061;51.748;19.620;2023-06-04T09:24:03;18.39;43.50
69006;SHT31;56061;51.748;19.620;2023-06-04T09:26:30;18.51;42.56
69006;SHT31;56061;51.748;19.620;2023-06-04T09:28:57;18.54;42.92
69006;SHT31;56061;51.748;19.620;2023-06-04T09:31:24;18.56;42.59
69006;SHT31;56061;51.748;19.620;2023-06-04T09:33:53;18.56;42.34
69006;SHT31;56061;51.748;19.620;2023-06-04T09:36:19;18.52;41.31
69006;SHT31;56061;51.748;19.620;2023-06-04T09:39:14;18.44;41.02
69006;SHT31;56061;51.748;19.620;2023-06-04T09:41:43;18.44;42.08
69006;SHT31;56061;51.748;19.620;2023-06-04T09:44:10;18.49;42.60
69006;SHT31;56061;51.748;19.620;2023-06-04T09:46:38;18.60;43.04
69006;SHT31;56061;51.748;19.620;2023-06-04T09:49:05;18.75;43.18
69006;SHT31;56061;51.748;19.620;2023-06-04T09:51:32;18.85;42.48
69006;SHT31;56061;51.748;19.620;2023-06-04T09:54:00;18.89;42.16
69006;SHT31;56061;51.748;19.620;2023-06-04T09:56:29;18.88;41.59
69006;SHT31;56061;51.748;19.620;2023-06-04T09:59:07;18.83;41.28
69006;SHT31;56061;51.748;19.620;2023-06-04T10:01:38;18.82;41.19
69006;SHT31;56061;51.748;19.620;2023-06-04T10:04:03;18.79;41.11
69006;SHT31;56061;51.748;19.620;2023-06-04T10:06:35;18.82;42.58
69006;SHT31;56061;51.748;19.620;2023-06-04T10:09:08;18.93;41.65
69006;SHT31;56061;51.748;19.620;2023-06-04T10:14:05;18.95;40.81
69006;SHT31;56061;51.748;19.620;2023-06-04T10:16:47;19.00;41.56
69006;SHT31;56061;51.748;19.620;2023-06-04T10:19:27;19.13;41.40
69006;SHT31;56061;51.748;19.620;2023-06-04T10:21:55;19.21;41.05
69006;SHT31;56061;51.748;19.620;2023-06-04T10:24:22;19.26;40.98
69006;SHT31;56061;51.748;19.620;2023-06-04T10:26:53;19.32;40.83
69006;SHT31;56061;51.748;19.620;2023-06-04T10:29:25;19.37;40.87
69006;SHT31;56061;51.748;19.620;2023-06-04T10:31:56;19.45;40.24
69006;SHT31;56061;51.748;19.620;2023-06-04T10:34:22;19.47;39.49
69006;SHT31;56061;51.748;19.620;2023-06-04T10:36:49;19.44;39.95
69006;SHT31;56061;51.748;19.620;2023-06-04T10:39:25;19.46;39.93
69006;SHT31;56061;51.748;19.620;2023-06-04T10:42:01;19.46;39.74
69006;SHT31;56061;51.748;19.620;2023-06-04T10:44:31;19.49;40.25
69006;SHT31;56061;51.748;19.620;2023-06-04T10:47:03;19.61;40.35
69006;SHT31;56061;51.748;19.620;2023-06-04T10:49:30;19.68;39.44
69006;SHT31;56061;51.748;19.620;2023-06-04T10:51:57;19.67;38.84
69006;SHT31;56061;51.748;19.620;2023-06-04T10:54:32;19.66;39.08
69006;SHT31;56061;51.748;19.620;2023-06-04T10:57:09;19.67;38.71
69006;SHT31;56061;51.748;19.620;2023-06-04T10:59:40;19.67;38.95
69006;SHT31;56061;51.748;19.620;2023-06-04T11:02:12;19.71;39.75
69006;SHT31;56061;51.748;19.620;2023-06-04T11:04:42;19.80;39.92
69006;SHT31;56061;51.748;19.620;2023-06-04T11:07:08;19.92;39.94
69006;SHT31;56061;51.748;19.620;2023-06-04T11:09:36;20.05;40.11
69006;SHT31;56061;51.748;19.620;2023-06-04T11:12:04;20.16;39.44
69006;SHT31;56061;51.748;19.620;2023-06-04T11:14:40;20.24;39.33
69006;SHT31;56061;51.748;19.620;2023-06-04T11:17:10;20.34;39.75
69006;SHT31;56061;51.748;19.620;2023-06-04T11:19:38;20.46;38.90
69006;SHT31;56061;51.748;19.620;2023-06-04T11:22:06;20.53;38.80
69006;SHT31;56061;51.748;19.620;2023-06-04T11:24:37;20.63;38.54
69006;SHT31;56061;51.748;19.620;2023-06-04T11:27:04;20.71;38.33
69006;SHT31;56061;51.748;19.620;2023-06-04T11:29:42;20.78;38.35
69006;SHT31;56061;51.748;19.620;2023-06-04T11:32:09;20.94;38.74
69006;SHT31;56061;51.748;19.620;2023-06-04T11:34:36;21.09;38.07
69006;SHT31;56061;51.748;19.620;2023-06-04T11:37:27;21.14;37.31
69006;SHT31;56061;51.748;19.620;2023-06-04T11:39:56;21.22;37.88
69006;SHT31;56061;51.748;19.620;2023-06-04T11:42:23;21.31;37.25
69006;SHT31;56061;51.748;19.620;2023-06-04T11:44:55;21.30;36.78
69006;SHT31;56061;51.748;19.620;2023-06-04T11:47:25;21.28;36.74
69006;SHT31;56061;51.748;19.620;2023-06-04T11:49:55;21.34;37.70
69006;SHT31;56061;51.748;19.620;2023-06-04T11:52:22;21.47;37.17
69006;SHT31;56061;51.748;19.620;2023-06-04T11:54:49;21.55;36.88
69006;SHT31;56061;51.748;19.620;2023-06-04T11:57:16;21.64;36.77
69006;SHT31;56061;51.748;19.620;2023-06-04T11:59:43;21.69;36.55
69006;SHT31;56061;51.748;19.620;2023-06-04T12:02:10;21.76;36.58
69006;SHT31;56061;51.748;19.620;2023-06-04T12:04:37;21.80;37.18
69006;SHT31;56061;51.748;19.620;2023-06-04T12:07:03;21.89;36.34
69006;SHT31;56061;51.748;19.620;2023-06-04T12:12:27;22.03;36.53
69006;SHT31;56061;51.748;19.620;2023-06-04T12:14:57;22.08;35.90
69006;SHT31;56061;51.748;19.620;2023-06-04T12:17:24;22.11;36.63
69006;SHT31;56061;51.748;19.620;2023-06-04T12:19:55;22.26;36.92
69006;SHT31;56061;51.748;19.620;2023-06-04T12:22:23;22.36;34.73
69006;SHT31;56061;51.748;19.620;2023-06-04T12:24:53;22.34;35.85
69006;SHT31;56061;51.748;19.620;2023-06-04T12:27:23;22.42;35.55
69006;SHT31;56061;51.748;19.620;2023-06-04T12:29:58;22.50;35.46
69006;SHT31;56061;51.748;19.620;2023-06-04T12:32:27;22.56;35.22
69006;SHT31;56061;51.748;19.620;2023-06-04T12:34:54;22.64;35.23
69006;SHT31;56061;51.748;19.620;2023-06-04T12:37:22;22.69;35.30
69006;SHT31;56061;51.748;19.620;2023-06-04T12:39:51;22.80;35.16
69006;SHT31;56061;51.748;19.620;2023-06-04T12:42:25;22.90;35.38
69006;SHT31;56061;51.748;19.620;2023-06-04T12:44:54;23.05;35.83
69006;SHT31;56061;51.748;19.620;2023-06-04T12:47:21;23.18;34.71
69006;SHT31;56061;51.748;19.620;2023-06-04T12:49:47;23.20;34.28
69006;SHT31;56061;51.748;19.620;2023-06-04T12:52:15;23.20;33.92
69006;SHT31;56061;51.748;19.620;2023-06-04T12:54:43;23.21;34.22
69006;SHT31;56061;51.748;19.620;2023-06-04T12:57:09;23.25;33.77
69006;SHT31;56061;51.748;19.620;2023-06-04T12:59:36;23.28;33.76
69006;SHT31;56061;51.748;19.620;2023-06-04T13:02:04;23.32;33.08
69006;SHT31;56061;51.748;19.620;2023-06-04T13:04:30;23.37;33.43
69006;SHT31;56061;51.748;19.620;2023-06-04T13:06:57;23.42;34.08
69006;SHT31;56061;51.748;19.620;2023-06-04T13:09:29;23.56;34.12
69006;SHT31;56061;51.748;19.620;2023-06-04T13:12:01;23.69;33.03
69006;SHT31;56061;51.748;19.620;2023-06-04T13:14:27;23.70;33.35
69006;SHT31;56061;51.748;19.620;2023-06-04T13:16:59;23.77;33.15
69006;SHT31;56061;51.748;19.620;2023-06-04T13:19:39;23.83;32.18
69006;SHT31;56061;51.748;19.620;2023-06-04T13:22:05;23.85;32.13
69006;SHT31;56061;51.748;19.620;2023-06-04T13:24:32;23.88;32.47
69006;SHT31;56061;51.748;19.620;2023-06-04T13:26:59;23.86;32.36
69006;SHT31;56061;51.748;19.620;2023-06-04T13:29:25;23.86;31.77
69006;SHT31;56061;51.748;19.620;2023-06-04T13:31:58;23.86;31.86
69006;SHT31;56061;51.748;19.620;2023-06-04T13:34:28;23.82;31.09
69006;SHT31;56061;51.748;19.620;2023-06-04T13:36:54;23.74;33.23
69006;SHT31;56061;51.748;19.620;2023-06-04T13:39:21;23.80;33.26
69006;SHT31;56061;51.748;19.620;2023-06-04T13:41:48;23.91;33.07
69006;SHT31;56061;51.748;19.620;2023-06-04T13:44:15;23.88;32.70
69006;SHT31;56061;51.748;19.620;2023-06-04T13:46:41;23.76;32.28
69006;SHT31;56061;51.748;19.620;2023-06-04T13:49:08;23.70;32.75
69006;SHT31;56061;51.748;19.620;2023-06-04T13:51:35;23.82;33.66
69006;SHT31;56061;51.748;19.620;2023-06-04T13:54:02;23.94;33.02
69006;SHT31;56061;51.748;19.620;2023-06-04T13:56:28;24.10;33.03
69006;SHT31;56061;51.748;19.620;2023-06-04T13:58:58;24.26;33.06
69006;SHT31;56061;51.748;19.620;2023-06-04T14:01:26;24.44;32.75
69006;SHT31;56061;51.748;19.620;2023-06-04T14:03:53;24.57;32.53
69006;SHT31;56061;51.748;19.620;2023-06-04T14:06:19;24.67;32.39
69006;SHT31;56061;51.748;19.620;2023-06-04T14:08:46;24.76;32.32
69006;SHT31;56061;51.748;19.620;2023-06-04T14:11:15;24.88;32.78
69006;SHT31;56061;51.748;19.620;2023-06-04T14:13:46;24.99;31.81
69006;SHT31;56061;51.748;19.620;2023-06-04T14:16:13;25.02;31.66
69006;SHT31;56061;51.748;19.620;2023-06-04T14:18:40;25.14;32.11
69006;SHT31;56061;51.748;19.620;2023-06-04T14:21:06;25.19;31.59
69006;SHT31;56061;51.748;19.620;2023-06-04T14:23:34;25.23;30.84
69006;SHT31;56061;51.748;19.620;2023-06-04T14:26:02;25.27;30.76
69006;SHT31;56061;51.748;19.620;2023-06-04T14:28:28;25.31;30.16
69006;SHT31;56061;51.748;19.620;2023-06-04T14:30:55;25.31;30.06
69006;SHT31;56061;51.748;19.620;2023-06-04T14:33:24;25.31;30.11
69006;SHT31;56061;51.748;19.620;2023-06-04T14:35:50;25.29;29.30
69006;SHT31;56061;51.748;19.620;2023-06-04T14:38:18;25.27;28.99
69006;SHT31;56061;51.748;19.620;2023-06-04T14:40:44;25.18;28.50
69006;SHT31;56061;51.748;19.620;2023-06-04T14:43:11;25.07;29.28
69006;SHT31;56061;51.748;19.620;2023-06-04T14:45:39;25.09;29.72
69006;SHT31;56061;51.748;19.620;2023-06-04T14:48:07;25.13;30.89
69006;SHT31;56061;51.748;19.620;2023-06-04T14:53:08;25.35;30.38
69006;SHT31;56061;51.748;19.620;2023-06-04T14:55:35;25.42;30.01
69006;SHT31;56061;51.748;19.620;2023-06-04T14:58:02;25.44;29.20
69006;SHT31;56061;51.748;19.620;2023-06-04T15:00:29;25.48;30.04
69006;SHT31;56061;51.748;19.620;2023-06-04T15:02:57;25.54;30.20
69006;SHT31;56061;51.748;19.620;2023-06-04T15:05:32;25.59;29.30
69006;SHT31;56061;51.748;19.620;2023-06-04T15:07:59;25.47;29.11
69006;SHT31;56061;51.748;19.620;2023-06-04T15:10:26;25.44;29.70
69006;SHT31;56061;51.748;19.620;2023-06-04T15:12:53;25.55;29.73
69006;SHT31;56061;51.748;19.620;2023-06-04T15:15:20;25.56;29.61
69006;SHT31;56061;51.748;19.620;2023-06-04T15:17:47;25.59;29.87
69006;SHT31;56061;51.748;19.620;2023-06-04T15:20:15;25.64;29.85
69006;SHT31;56061;51.748;19.620;2023-06-04T15:22:42;25.69;29.94
69006;SHT31;56061;51.748;19.620;2023-06-04T15:25:09;25.75;30.14
69006;SHT31;56061;51.748;19.620;2023-06-04T15:27:35;25.73;29.64
69006;SHT31;56061;51.748;19.620;2023-06-04T15:30:11;25.73;29.71
69006;SHT31;56061;51.748;19.620;2023-06-04T15:32:38;25.76;29.82
69006;SHT31;56061;51.748;19.620;2023-06-04T15:35:04;25.83;29.60
69006;SHT31;56061;51.748;19.620;2023-06-04T15:37:31;25.84;29.86
69006;SHT31;56061;51.748;19.620;2023-06-04T15:39:57;25.93;29.88
69006;SHT31;56061;51.748;19.620;2023-06-04T15:42:35;25.94;29.15
69006;SHT31;56061;51.748;19.620;2023-06-04T15:45:01;25.94;30.02
69006;SHT31;56061;51.748;19.620;2023-06-04T15:47:28;26.03;30.57
69006;SHT31;56061;51.748;19.620;2023-06-04T15:49:55;26.11;29.73
69006;SHT31;56061;51.748;19.620;2023-06-04T15:52:21;26.07;28.58
69006;SHT31;56061;51.748;19.620;2023-06-04T15:54:48;25.98;29.02
69006;SHT31;56061;51.748;19.620;2023-06-04T15:57:19;25.98;29.06
69006;SHT31;56061;51.748;19.620;2023-06-04T15:59:45;25.98;28.92
69006;SHT31;56061;51.748;19.620;2023-06-04T16:02:12;25.97;28.90
69006;SHT31;56061;51.748;19.620;2023-06-04T16:04:38;25.91;28.43
69006;SHT31;56061;51.748;19.620;2023-06-04T16:07:05;25.82;28.64
69006;SHT31;56061;51.748;19.620;2023-06-04T16:09:31;25.79;29.19
69006;SHT31;56061;51.748;19.620;2023-06-04T16:11:58;25.77;28.89
69006;SHT31;56061;51.748;19.620;2023-06-04T16:14:25;25.75;28.75
69006;SHT31;56061;51.748;19.620;2023-06-04T16:16:51;25.73;28.40
69006;SHT31;56061;51.748;19.620;2023-06-04T16:19:19;25.62;28.34
69006;SHT31;56061;51.748;19.620;2023-06-04T16:21:45;25.62;28.57
69006;SHT31;56061;51.748;19.620;2023-06-04T16:24:12;25.75;28.99
69006;SHT31;56061;51.748;19.620;2023-06-04T16:26:38;25.94;29.08